createdAt,value
2023-05-20T00:01:38.752Z,10.77
2023-05-20T00:11:42.311Z,10.83
2023-05-20T00:21:45.423Z,11.01
2023-05-20T00:31:48.504Z,11.00
2023-05-20T00:41:52.278Z,11.09
2023-05-20T00:51:55.524Z,11.15
2023-05-20T01:01:59.493Z,11.07
2023-05-20T01:12:09.883Z,11.02
2023-05-20T01:22:14.811Z,11.07
2023-05-20T01:32:40.658Z,10.92
2023-05-20T01:42:46.079Z,10.85
2023-05-20T01:52:49.882Z,10.79
2023-05-20T02:02:53.026Z,10.79
2023-05-20T02:12:56.353Z,10.72
2023-05-20T02:23:00.045Z,10.91
2023-05-20T02:33:03.078Z,11.15
2023-05-20T02:43:06.215Z,11.39
2023-05-20T02:53:10.470Z,11.52
2023-05-20T03:03:14.278Z,11.53
2023-05-20T03:13:17.653Z,11.50
2023-05-20T03:23:21.520Z,11.54
2023-05-20T03:33:26.480Z,11.60
2023-05-20T03:43:30.145Z,11.64
2023-05-20T03:53:33.572Z,11.78
2023-05-20T04:03:37.443Z,11.88
2023-05-20T04:13:40.939Z,11.95
2023-05-20T04:23:44.345Z,12.08
2023-05-20T04:33:47.701Z,12.20
2023-05-20T04:43:51.048Z,12.14
2023-05-20T04:53:54.574Z,12.13
2023-05-20T05:03:57.801Z,12.13
2023-05-20T05:14:00.922Z,12.32
2023-05-20T05:24:04.683Z,12.61
2023-05-20T05:34:07.927Z,12.93
2023-05-20T05:44:11.241Z,13.25
2023-05-20T05:54:14.481Z,13.45
2023-05-20T06:04:17.871Z,13.86
2023-05-20T06:14:21.400Z,14.16
2023-05-20T06:24:25.126Z,14.50
2023-05-20T06:34:28.675Z,14.88
2023-05-20T06:44:33.149Z,15.36
2023-05-20T06:55:06.288Z,15.80
2023-05-20T07:05:11.172Z,16.25
2023-05-20T07:15:14.530Z,16.64
2023-05-20T07:25:18.547Z,17.18
2023-05-20T07:35:22.048Z,17.72
2023-05-20T07:45:25.977Z,18.28
2023-05-20T07:55:29.347Z,18.41
2023-05-20T08:05:34.173Z,19.07
2023-05-20T08:15:37.506Z,19.68
2023-05-20T08:25:40.935Z,19.53
2023-05-20T08:35:44.507Z,19.15
2023-05-20T08:45:47.741Z,19.18
2023-05-20T08:56:01.002Z,19.18
2023-05-20T09:06:06.729Z,19.28
2023-05-20T09:16:11.233Z,19.42
2023-05-20T09:26:15.018Z,19.33
2023-05-20T09:36:20.547Z,19.37
2023-05-20T09:46:24.116Z,19.46
2023-05-20T09:56:28.614Z,19.57
2023-05-20T10:07:07.033Z,19.76
2023-05-20T10:17:19.701Z,20.08
2023-05-20T10:27:22.863Z,20.27
2023-05-20T10:37:32.900Z,20.22
2023-05-20T10:47:37.367Z,20.33
2023-05-20T10:57:41.588Z,20.52
2023-05-20T11:07:44.743Z,20.59
2023-05-20T11:17:59.918Z,20.67
2023-05-20T11:28:03.246Z,20.72
2023-05-20T11:38:10.421Z,20.66
2023-05-20T11:48:15.944Z,20.71
2023-05-20T11:58:25.031Z,20.54
2023-05-20T12:08:28.267Z,20.63
2023-05-20T12:18:32.082Z,20.69
2023-05-20T12:28:35.441Z,20.66
2023-05-20T12:38:38.614Z,20.84
2023-05-20T12:48:42.768Z,20.90
2023-05-20T12:58:46.199Z,20.84
2023-05-20T13:08:49.426Z,20.91
2023-05-20T13:18:52.916Z,20.91
2023-05-20T13:28:56.349Z,21.04
2023-05-20T13:38:59.697Z,21.16
2023-05-20T13:49:03.084Z,21.36
2023-05-20T13:59:06.298Z,21.70
2023-05-20T14:09:09.574Z,21.67
2023-05-20T14:19:12.900Z,21.79
2023-05-20T14:29:16.373Z,22.09
2023-05-20T14:39:19.454Z,22.22
2023-05-20T14:49:22.516Z,22.39
2023-05-20T14:59:25.937Z,22.59
2023-05-20T15:09:29.046Z,22.75
2023-05-20T15:19:33.107Z,22.98
2023-05-20T15:29:38.649Z,23.42
2023-05-20T15:39:42.353Z,23.46
2023-05-20T15:49:45.652Z,23.35
2023-05-20T15:59:48.760Z,22.63
2023-05-20T16:09:52.049Z,22.17
2023-05-20T16:19:55.471Z,21.78
2023-05-20T16:30:00.004Z,21.45
2023-05-20T16:40:04.561Z,21.11
2023-05-20T16:50:08.628Z,20.75
2023-05-20T17:00:13.450Z,20.38
2023-05-20T17:10:16.676Z,19.99
2023-05-20T17:20:20.032Z,19.67
2023-05-20T17:30:23.311Z,19.40
2023-05-20T17:40:26.531Z,19.20
2023-05-20T17:50:29.932Z,18.98
2023-05-20T18:00:34.726Z,18.83
2023-05-20T18:10:39.208Z,18.53
2023-05-20T18:20:42.375Z,18.17
2023-05-20T18:30:46.016Z,17.78
2023-05-20T18:40:49.739Z,17.48
2023-05-20T18:50:53.235Z,17.14
2023-05-20T19:01:48.209Z,16.76
2023-05-20T19:11:59.167Z,16.34
2023-05-20T19:22:03.109Z,15.81
2023-05-20T19:32:07.086Z,15.37
2023-05-20T19:42:10.726Z,15.16
2023-05-20T19:52:18.734Z,14.98
2023-05-20T20:02:23.302Z,14.87
2023-05-20T20:12:27.027Z,14.66
2023-05-20T20:22:30.912Z,14.45
2023-05-20T20:32:36.313Z,14.23
2023-05-20T20:42:42.167Z,14.01
2023-05-20T20:52:45.431Z,13.87
2023-05-20T21:02:52.915Z,13.86
2023-05-20T21:12:58.246Z,13.96
2023-05-20T21:23:01.508Z,13.78
2023-05-20T21:33:04.947Z,13.54
2023-05-20T21:43:08.095Z,13.53
2023-05-20T21:53:11.172Z,13.41
2023-05-20T22:03:14.821Z,13.34
2023-05-20T22:13:20.779Z,13.34
2023-05-20T22:23:23.976Z,13.24
2023-05-20T22:33:27.131Z,13.16
2023-05-20T22:43:30.248Z,13.02
2023-05-20T22:53:33.466Z,12.87
2023-05-20T23:03:36.778Z,12.73
2023-05-20T23:13:39.894Z,12.68
2023-05-20T23:23:42.945Z,12.70
2023-05-20T23:33:46.177Z,12.86
2023-05-20T23:43:49.407Z,12.96
2023-05-20T23:53:52.473Z,13.06
